Weather at Segamat Airport

Public forecast

Using degrees Celsius for public forecast. Weather courtesy of forecast.io.

Closest aviation weather report (METAR) to Segamat Airport

Closest report is Malacca International Airport, 37.9 nm (70.1 km) WSW.

2023/03/31 22:00 (retrieved 49 minutes ago)

WMKM 312200Z VRB02KT 8000 FEW012 FEW017CB 26/25 Q1009

Closest aviation forecast (TAF) to Segamat Airport

Closest forecast is Malacca International Airport, 37.9 nm (70.1 km) WSW.

2023/03/31 18:00 (retrieved 5 hours ago)

TAF WMKM 311700Z 3118/0118 VRB02KT 9999 FEW024 TEMPO 0107/0111 5000 TSRA FEW017CB SCT020